TimeCST,TemperatureF,Dew PointF,Humidity,Sea Level PressureIn,VisibilityMPH,Wind Direction,Wind SpeedMPH,Gust SpeedMPH,PrecipitationIn,Events,Conditions,WindDirDegrees,DateUTC
12:53 AM,15.1,8.1,74,30.26,8.0,NW,5.8,-,N/A,,Clear,310,2013-01-02 06:53:00
1:53 AM,12.9,8.1,81,30.27,8.0,NW,5.8,-,N/A,,Clear,310,2013-01-02 07:53:00
2:53 AM,12.0,7.0,80,30.28,7.0,NW,4.6,-,N/A,,Clear,310,2013-01-02 08:53:00
3:53 AM,12.0,7.0,80,30.28,7.0,WNW,5.8,-,N/A,,Clear,300,2013-01-02 09:53:00
4:53 AM,10.9,6.1,81,30.26,7.0,NW,4.6,-,N/A,,Clear,310,2013-01-02 10:53:00
6:53 AM,1.9,-0.0,91,30.30,5.0,WNW,3.5,-,N/A,,Clear,290,2013-01-02 12:53:00
7:53 AM,7.0,3.9,87,30.32,4.0,NW,5.8,-,N/A,,Clear,320,2013-01-02 13:53:00
9:53 AM,12.0,8.1,84,30.33,5.0,Calm,Calm,-,N/A,,Clear,0,2013-01-02 15:53:00
10:53 AM,16.0,9.0,74,30.32,6.0,Calm,Calm,-,N/A,,Haze,0,2013-01-02 16:53:00
11:53 AM,16.0,9.0,74,30.30,5.0,Calm,Calm,-,N/A,,Haze,0,2013-01-02 17:53:00
12:53 PM,18.0,9.0,68,30.27,7.0,Calm,Calm,-,N/A,,Clear,0,2013-01-02 18:53:00
1:53 PM,18.0,10.0,71,30.26,6.0,ESE,3.5,-,N/A,,Haze,110,2013-01-02 19:53:00
2:53 PM,19.0,10.9,71,30.27,6.0,SSE,3.5,-,N/A,,Haze,150,2013-01-02 20:53:00
3:53 PM,19.9,10.9,68,30.27,6.0,Calm,Calm,-,N/A,,Haze,0,2013-01-02 21:53:00
4:53 PM,17.1,10.0,74,30.28,6.0,Calm,Calm,-,N/A,,Haze,0,2013-01-02 22:53:00
5:53 PM,15.1,9.0,77,30.29,7.0,Calm,Calm,-,N/A,,Clear,0,2013-01-02 23:53:00
6:53 PM,12.0,7.0,80,30.29,7.0,SE,4.6,-,N/A,,Clear,140,2013-01-03 00:53:00
7:53 PM,12.0,7.0,80,30.29,7.0,Calm,Calm,-,N/A,,Clear,0,2013-01-03 01:53:00
8:53 PM,12.0,7.0,80,30.29,7.0,Calm,Calm,-,N/A,,Clear,0,2013-01-03 02:53:00
9:53 PM,10.0,5.0,80,30.29,5.0,Calm,Calm,-,N/A,,Haze,0,2013-01-03 03:53:00
10:43 PM,8.6,5.0,85,30.27,2.0,South,3.5,-,N/A,,Clear,170,2013-01-03 04:43:00
11:20 PM,6.8,3.2,85,30.27,2.0,Calm,Calm,-,N/A,,Clear,0,2013-01-03 05:20:00
11:40 PM,8.6,3.2,79,30.26,3.0,Calm,Calm,-,N/A,,Clear,0,2013-01-03 05:40:00
11:53 PM,9.0,5.0,84,30.29,3.0,Calm,Calm,-,N/A,,Clear,0,2013-01-03 05:53:00